createdAt,value
2019-01-17T00:00:18.625Z,-0.10
2019-01-17T00:03:33.162Z,-0.10
2019-01-17T00:06:43.877Z,-0.28
2019-01-17T00:09:42.701Z,-0.28
2019-01-17T00:12:53.755Z,-0.43
2019-01-17T00:16:04.430Z,-0.43
2019-01-17T00:19:09.835Z,-0.46
2019-01-17T00:22:23.519Z,-0.26
2019-01-17T00:25:22.104Z,-0.12
2019-01-17T00:28:32.950Z,-0.12
2019-01-17T00:31:34.563Z,0.12
2019-01-17T00:34:54.033Z,0.24
2019-01-17T00:37:57.302Z,0.24
2019-01-17T00:41:03.727Z,0.14
2019-01-17T00:44:09.997Z,0.14
2019-01-17T00:47:29.473Z,0.15
2019-01-17T00:50:25.868Z,0.25
2019-01-17T00:53:29.392Z,0.25
2019-01-17T00:56:35.757Z,0.48
2019-01-17T00:59:42.547Z,0.48
2019-01-17T01:02:50.549Z,0.59
2019-01-17T01:06:07.673Z,0.73
2019-01-17T01:09:24.404Z,0.68
2019-01-17T01:12:31.115Z,0.77
2019-01-17T01:15:38.312Z,0.77
2019-01-17T01:18:33.115Z,0.84
2019-01-17T01:21:37.169Z,0.89
2019-01-17T01:24:44.421Z,0.86
2019-01-17T01:27:51.093Z,0.86
2019-01-17T01:31:10.103Z,0.87
2019-01-17T01:34:20.520Z,0.93
2019-01-17T01:37:28.882Z,0.93
2019-01-17T01:40:39.198Z,0.98
2019-01-17T01:43:45.087Z,0.80
2019-01-17T01:46:47.124Z,0.69
2019-01-17T01:49:59.777Z,0.69
2019-01-17T01:53:07.687Z,0.74
2019-01-17T01:55:56.510Z,0.64
2019-01-17T01:58:45.551Z,0.69
2019-01-17T02:01:34.299Z,0.63
2019-01-17T02:04:23.188Z,0.63
2019-01-17T02:07:12.572Z,0.66
2019-01-17T02:10:01.112Z,0.59
2019-01-17T02:12:50.320Z,0.58
2019-01-17T02:15:39.427Z,0.58
2019-01-17T02:18:28.432Z,0.58
2019-01-17T02:21:18.110Z,0.66
2019-01-17T02:24:06.554Z,0.66
2019-01-17T02:26:55.363Z,0.72
2019-01-17T02:29:43.903Z,0.72
2019-01-17T02:32:32.262Z,0.63
2019-01-17T02:35:21.111Z,0.60
2019-01-17T02:38:09.932Z,0.41
2019-01-17T02:40:59.426Z,0.44
2019-01-17T02:43:48.519Z,0.40
2019-01-17T02:46:36.926Z,0.43
2019-01-17T02:49:24.863Z,0.49
2019-01-17T02:52:13.566Z,0.54
2019-01-17T02:55:02.256Z,0.46
2019-01-17T02:57:52.861Z,0.44
2019-01-17T03:00:41.688Z,0.34
2019-01-17T03:03:30.201Z,0.32
2019-01-17T03:06:18.171Z,0.36
2019-01-17T03:09:08.043Z,0.48
2019-01-17T03:11:57.114Z,0.58
2019-01-17T03:14:45.235Z,0.58
2019-01-17T03:17:33.476Z,0.83
2019-01-17T03:20:22.229Z,0.88
2019-01-17T03:23:11.005Z,1.11
2019-01-17T03:25:59.525Z,1.11
2019-01-17T03:28:47.752Z,1.30
2019-01-17T03:31:38.256Z,1.42
2019-01-17T03:34:26.784Z,1.65
2019-01-17T03:37:15.158Z,1.63
2019-01-17T03:40:03.872Z,1.71
2019-01-17T03:42:52.717Z,1.83
2019-01-17T03:45:41.989Z,2.08
2019-01-17T03:48:31.202Z,2.13
2019-01-17T03:51:20.573Z,2.17
2019-01-17T03:54:09.134Z,2.42
2019-01-17T03:56:57.209Z,2.55
2019-01-17T03:59:45.945Z,2.65
2019-01-17T04:02:34.351Z,2.81
2019-01-17T04:05:23.041Z,2.98
2019-01-17T04:08:12.604Z,3.20
2019-01-17T04:11:01.846Z,3.48
2019-01-17T04:13:50.297Z,3.57
2019-01-17T04:16:39.121Z,3.76
2019-01-17T04:19:27.483Z,3.95
2019-01-17T04:22:15.705Z,3.95
2019-01-17T04:25:04.898Z,4.00
2019-01-17T04:27:53.914Z,3.98
2019-01-17T04:30:42.385Z,4.01
2019-01-17T04:33:35.133Z,4.01
2019-01-17T04:36:24.889Z,4.01
2019-01-17T04:39:13.714Z,4.18
2019-01-17T04:42:02.586Z,4.15
2019-01-17T04:44:51.009Z,4.07
2019-01-17T04:47:39.705Z,4.07
2019-01-17T04:50:28.849Z,4.00
2019-01-17T04:53:17.036Z,4.00
2019-01-17T04:56:05.348Z,3.79
2019-01-17T04:58:54.760Z,3.79
2019-01-17T05:01:43.813Z,3.87
2019-01-17T05:04:32.664Z,3.81
2019-01-17T05:07:21.530Z,3.81
2019-01-17T05:10:11.153Z,3.71
2019-01-17T05:13:11.989Z,3.69
2019-01-17T05:16:00.602Z,3.69
2019-01-17T05:18:49.755Z,3.58
2019-01-17T05:21:47.588Z,3.53
2019-01-17T05:24:36.363Z,3.55
2019-01-17T05:27:25.465Z,3.33
2019-01-17T05:30:18.161Z,3.06
2019-01-17T05:33:06.192Z,2.80
2019-01-17T05:35:55.113Z,2.60
2019-01-17T05:38:44.187Z,2.55
2019-01-17T05:41:33.543Z,2.24
2019-01-17T05:44:22.974Z,2.14
2019-01-17T05:47:17.803Z,2.07
2019-01-17T05:50:08.088Z,1.98
2019-01-17T05:52:57.262Z,1.98
2019-01-17T05:55:57.651Z,2.01
2019-01-17T05:58:46.025Z,2.04
2019-01-17T06:01:34.822Z,1.94
2019-01-17T06:04:23.876Z,2.03
2019-01-17T06:07:12.740Z,1.87
2019-01-17T06:10:05.739Z,1.83
2019-01-17T06:12:55.192Z,1.79
2019-01-17T06:15:44.101Z,1.84
2019-01-17T06:18:32.948Z,1.81
2019-01-17T06:21:21.561Z,1.84
2019-01-17T06:24:11.845Z,1.88
2019-01-17T06:27:00.495Z,1.88
2019-01-17T06:29:49.709Z,1.89
2019-01-17T06:32:38.428Z,1.82
2019-01-17T06:35:27.031Z,1.81
2019-01-17T06:38:16.498Z,1.78
2019-01-17T06:41:05.762Z,1.62
2019-01-17T06:43:54.892Z,1.34
2019-01-17T06:46:43.390Z,1.19
2019-01-17T06:49:32.201Z,1.19
2019-01-17T06:52:21.213Z,1.25
2019-01-17T06:55:09.451Z,1.18
2019-01-17T06:57:57.987Z,1.17
2019-01-17T07:00:46.794Z,1.15
2019-01-17T07:03:35.503Z,1.17
2019-01-17T07:06:23.840Z,1.16
2019-01-17T07:09:12.920Z,1.22
2019-01-17T07:12:02.256Z,1.26
2019-01-17T07:14:50.663Z,1.31
2019-01-17T07:17:39.101Z,1.29
2019-01-17T07:20:27.568Z,1.30
2019-01-17T07:23:15.948Z,1.27
2019-01-17T07:26:05.278Z,1.35
2019-01-17T07:28:54.367Z,1.42
2019-01-17T07:31:43.710Z,1.59
2019-01-17T07:34:32.950Z,1.66
2019-01-17T07:37:21.432Z,1.74
2019-01-17T07:40:10.384Z,1.86
2019-01-17T07:42:58.772Z,1.97
2019-01-17T07:45:47.211Z,2.07
2019-01-17T07:48:36.736Z,2.27
2019-01-17T07:51:26.122Z,2.68
2019-01-17T07:54:14.434Z,2.93
2019-01-17T07:57:03.859Z,3.28
2019-01-17T07:59:53.055Z,3.29
2019-01-17T08:02:41.979Z,3.28
2019-01-17T08:05:30.625Z,3.31
2019-01-17T08:08:19.276Z,3.31
2019-01-17T08:11:07.780Z,3.41
2019-01-17T08:13:56.958Z,3.63
2019-01-17T08:16:46.206Z,3.95
2019-01-17T08:19:35.188Z,3.98
2019-01-17T08:22:24.330Z,4.12
2019-01-17T08:25:13.411Z,4.12
2019-01-17T08:28:01.900Z,4.35
2019-01-17T08:30:50.557Z,4.50
2019-01-17T08:33:39.542Z,4.79
2019-01-17T08:36:27.843Z,4.79
2019-01-17T08:39:17.491Z,4.94
2019-01-17T08:42:05.765Z,5.16
2019-01-17T08:44:54.574Z,5.22
2019-01-17T08:47:43.247Z,5.25
2019-01-17T08:50:32.574Z,5.40
2019-01-17T08:53:21.206Z,5.50
2019-01-17T08:56:11.287Z,5.57
2019-01-17T08:58:59.956Z,5.55
2019-01-17T09:01:52.649Z,5.50
2019-01-17T09:04:40.923Z,5.46
2019-01-17T09:07:29.248Z,5.49
2019-01-17T09:10:23.677Z,5.62
2019-01-17T09:13:12.224Z,5.83
2019-01-17T09:16:02.365Z,6.00
2019-01-17T09:18:51.652Z,6.27
2019-01-17T09:21:40.228Z,6.48
2019-01-17T09:24:28.533Z,6.70
2019-01-17T09:27:17.817Z,6.95
2019-01-17T09:30:07.509Z,6.80
2019-01-17T09:32:55.664Z,6.80
2019-01-17T09:35:44.077Z,6.78
2019-01-17T09:38:32.258Z,6.96
2019-01-17T09:41:21.049Z,7.21
2019-01-17T09:44:09.536Z,7.24
2019-01-17T09:46:57.864Z,7.21
2019-01-17T09:49:46.265Z,7.05
2019-01-17T09:52:35.029Z,6.94
2019-01-17T09:55:24.309Z,6.84
2019-01-17T09:58:12.758Z,6.79
2019-01-17T10:01:02.556Z,6.79
2019-01-17T10:03:51.645Z,6.76
2019-01-17T10:06:40.323Z,6.68
2019-01-17T10:09:28.936Z,6.80
2019-01-17T10:12:17.186Z,6.75
2019-01-17T10:15:10.006Z,6.62
2019-01-17T10:18:34.901Z,6.57
2019-01-17T10:22:03.188Z,6.57
2019-01-17T10:25:36.322Z,6.43
2019-01-17T10:29:01.504Z,6.33
2019-01-17T10:32:23.113Z,6.34
2019-01-17T10:35:43.138Z,6.35
2019-01-17T10:39:08.122Z,6.35
2019-01-17T10:42:43.685Z,6.26
2019-01-17T10:46:04.817Z,6.37
2019-01-17T10:49:09.865Z,6.58
2019-01-17T10:52:37.545Z,6.56
2019-01-17T10:56:27.993Z,6.67
2019-01-17T10:59:50.322Z,6.80
2019-01-17T11:03:04.880Z,7.15
2019-01-17T11:06:00.420Z,7.27
2019-01-17T11:09:29.652Z,7.28
2019-01-17T11:12:53.815Z,7.31
2019-01-17T11:16:18.489Z,7.33
2019-01-17T11:19:29.641Z,7.30
2019-01-17T11:22:47.692Z,7.26
2019-01-17T11:26:34.307Z,7.40
2019-01-17T11:29:45.630Z,7.45
2019-01-17T11:33:01.196Z,7.68
2019-01-17T11:36:28.338Z,8.03
2019-01-17T11:39:49.584Z,8.15
2019-01-17T11:43:17.686Z,8.30
2019-01-17T11:46:36.756Z,8.36
2019-01-17T11:50:25.026Z,8.48
2019-01-17T11:53:50.434Z,8.59
2019-01-17T11:57:19.225Z,8.46
2019-01-17T12:00:34.080Z,8.39
2019-01-17T12:03:59.227Z,8.22
2019-01-17T12:06:47.762Z,8.14
2019-01-17T12:09:38.184Z,8.17
2019-01-17T12:12:27.759Z,8.18
2019-01-17T12:15:16.413Z,8.03
2019-01-17T12:18:05.153Z,7.96
2019-01-17T12:20:53.921Z,7.87
2019-01-17T12:23:42.515Z,7.81
2019-01-17T12:26:30.590Z,7.84
2019-01-17T12:29:19.352Z,7.78
2019-01-17T12:32:07.847Z,7.78
2019-01-17T12:34:56.891Z,7.74
2019-01-17T12:37:46.470Z,7.72
2019-01-17T12:40:34.635Z,7.71
2019-01-17T12:43:23.184Z,7.63
2019-01-17T12:46:12.046Z,7.61
2019-01-17T12:49:01.158Z,7.60
2019-01-17T12:51:50.460Z,7.56
2019-01-17T12:54:40.206Z,7.53
2019-01-17T12:57:30.548Z,7.48
2019-01-17T13:00:20.879Z,7.41
2019-01-17T13:03:09.156Z,7.37
2019-01-17T13:05:58.914Z,7.34
2019-01-17T13:08:48.591Z,7.38
2019-01-17T13:11:38.009Z,7.32
2019-01-17T13:14:25.853Z,7.14
2019-01-17T13:17:14.602Z,7.07
2019-01-17T13:20:04.201Z,7.03
2019-01-17T13:22:52.286Z,6.94
2019-01-17T13:25:41.348Z,6.97
2019-01-17T13:28:29.735Z,6.89
2019-01-17T13:31:19.061Z,6.80
2019-01-17T13:34:07.759Z,6.67
2019-01-17T13:36:56.510Z,6.67
2019-01-17T13:39:45.647Z,6.59
2019-01-17T13:42:34.801Z,6.57
2019-01-17T13:45:24.542Z,6.56
2019-01-17T13:48:13.978Z,6.54
2019-01-17T13:51:02.480Z,6.54
2019-01-17T13:53:54.553Z,6.42
2019-01-17T13:56:44.822Z,6.37
2019-01-17T13:59:33.317Z,6.26
2019-01-17T14:02:21.992Z,6.22
2019-01-17T14:05:10.951Z,6.15
2019-01-17T14:07:59.703Z,6.14
2019-01-17T14:10:49.016Z,6.13
2019-01-17T14:13:37.850Z,6.11
2019-01-17T14:16:26.508Z,6.04
2019-01-17T14:19:14.941Z,5.96
2019-01-17T14:22:03.829Z,5.91
2019-01-17T14:24:52.963Z,5.89
2019-01-17T14:27:45.855Z,5.87
2019-01-17T14:30:35.390Z,5.82
2019-01-17T14:33:27.279Z,5.77
2019-01-17T14:36:16.121Z,5.78
2019-01-17T14:39:07.215Z,5.73
2019-01-17T14:42:02.407Z,5.72
2019-01-17T14:44:50.995Z,5.63
2019-01-17T14:47:39.712Z,5.58
2019-01-17T14:50:29.937Z,5.57
2019-01-17T14:53:18.828Z,5.58
2019-01-17T14:56:07.235Z,5.49
2019-01-17T14:58:57.999Z,5.46
2019-01-17T15:01:46.674Z,5.37
2019-01-17T15:04:36.442Z,5.43
2019-01-17T15:07:25.276Z,5.38
2019-01-17T15:10:18.628Z,5.33
2019-01-17T15:13:07.673Z,5.32
2019-01-17T15:15:56.220Z,5.30
2019-01-17T15:18:44.728Z,5.31
2019-01-17T15:21:33.583Z,5.27
2019-01-17T15:24:25.000Z,5.30
2019-01-17T15:27:14.257Z,5.25
2019-01-17T15:30:06.423Z,5.24
2019-01-17T15:32:54.977Z,5.21
2019-01-17T15:35:43.643Z,5.25
2019-01-17T15:38:32.614Z,5.20
2019-01-17T15:41:21.228Z,5.13
2019-01-17T15:44:10.019Z,5.15
2019-01-17T15:46:58.533Z,5.09
2019-01-17T15:49:47.692Z,5.09
2019-01-17T15:52:36.575Z,5.07
2019-01-17T15:55:25.412Z,4.97
2019-01-17T15:58:14.215Z,4.96
2019-01-17T16:01:04.555Z,5.00
2019-01-17T16:03:55.500Z,4.93
2019-01-17T16:06:43.709Z,4.87
2019-01-17T16:09:32.576Z,4.78
2019-01-17T16:12:22.246Z,4.76
2019-01-17T16:15:14.019Z,4.78
2019-01-17T16:18:02.751Z,4.80
2019-01-17T16:20:51.676Z,4.86
2019-01-17T16:23:40.401Z,4.87
2019-01-17T16:26:29.643Z,4.82
2019-01-17T16:29:18.304Z,4.72
2019-01-17T16:32:07.857Z,4.74
2019-01-17T16:35:03.280Z,4.78
2019-01-17T16:37:52.713Z,4.72
2019-01-17T16:40:42.528Z,4.69
2019-01-17T16:43:31.539Z,4.77
2019-01-17T16:46:21.031Z,4.76
2019-01-17T16:49:10.351Z,4.71
2019-01-17T16:51:59.690Z,4.78
2019-01-17T16:54:48.692Z,4.72
2019-01-17T16:57:38.385Z,4.68
2019-01-17T17:00:39.482Z,4.68
2019-01-17T17:03:28.003Z,4.74
2019-01-17T17:06:16.771Z,4.75
2019-01-17T17:09:08.832Z,4.72
2019-01-17T17:12:02.090Z,4.75
2019-01-17T17:14:51.422Z,4.78
2019-01-17T17:17:40.587Z,4.69
2019-01-17T17:20:29.669Z,4.75
2019-01-17T17:23:18.808Z,4.63
2019-01-17T17:26:07.210Z,4.65
2019-01-17T17:28:58.104Z,4.64
2019-01-17T17:31:49.128Z,4.61
2019-01-17T17:34:38.315Z,4.55
2019-01-17T17:37:26.649Z,4.46
2019-01-17T17:40:26.295Z,4.53
2019-01-17T17:43:14.439Z,4.49
2019-01-17T17:46:03.669Z,4.43
2019-01-17T17:48:52.636Z,4.50
2019-01-17T17:51:41.079Z,4.42
2019-01-17T17:54:30.260Z,4.41
2019-01-17T17:57:19.147Z,4.30
2019-01-17T18:00:12.348Z,4.30
2019-01-17T18:03:06.083Z,4.28
2019-01-17T18:05:54.907Z,4.28
2019-01-17T18:08:43.723Z,4.34
2019-01-17T18:11:32.281Z,4.23
2019-01-17T18:14:21.637Z,4.34
2019-01-17T18:17:10.092Z,4.32
2019-01-17T18:20:00.322Z,4.26
2019-01-17T18:22:50.786Z,4.19
2019-01-17T18:25:39.566Z,4.18
2019-01-17T18:28:27.842Z,4.24
2019-01-17T18:31:15.994Z,4.23
2019-01-17T18:34:04.909Z,4.26
2019-01-17T18:36:53.657Z,4.22
2019-01-17T18:39:42.351Z,4.24
2019-01-17T18:42:33.732Z,4.31
2019-01-17T18:48:31.186Z,4.21
2019-01-17T18:51:23.177Z,4.24
2019-01-17T18:54:12.423Z,4.17
2019-01-17T18:57:01.177Z,4.17
2019-01-17T18:59:50.627Z,4.14
2019-01-17T19:02:40.092Z,4.09
2019-01-17T19:05:29.653Z,4.09
2019-01-17T19:08:19.227Z,4.22
2019-01-17T19:11:09.060Z,4.21
2019-01-17T19:13:58.357Z,4.24
2019-01-17T19:16:56.584Z,4.15
2019-01-17T19:22:58.301Z,4.13
2019-01-17T19:25:50.101Z,4.07
2019-01-17T19:28:39.616Z,4.11
2019-01-17T19:31:28.285Z,4.05
2019-01-17T19:34:17.257Z,4.09
2019-01-17T19:37:07.468Z,4.01
2019-01-17T19:39:56.259Z,4.06
2019-01-17T19:42:44.361Z,4.06
2019-01-17T19:45:33.729Z,4.01
2019-01-17T19:48:22.671Z,3.97
2019-01-17T19:51:12.730Z,3.98
2019-01-17T19:54:05.977Z,3.97
2019-01-17T19:56:56.072Z,3.98
2019-01-17T19:59:45.078Z,3.95
2019-01-17T20:02:35.011Z,3.99
2019-01-17T20:05:27.875Z,3.99
2019-01-17T20:08:17.111Z,4.05
2019-01-17T20:11:07.056Z,3.98
2019-01-17T20:13:58.865Z,3.94
2019-01-17T20:16:53.750Z,3.96
2019-01-17T20:19:41.863Z,3.96
2019-01-17T20:22:30.492Z,3.95
2019-01-17T20:25:19.328Z,3.95
2019-01-17T20:28:08.963Z,3.90
2019-01-17T20:30:57.956Z,3.82
2019-01-17T20:33:46.170Z,3.79
2019-01-17T20:36:34.690Z,3.79
2019-01-17T20:39:23.434Z,3.83
2019-01-17T20:42:12.895Z,3.75
2019-01-17T20:45:02.873Z,3.84
2019-01-17T20:47:51.871Z,3.75
2019-01-17T20:50:40.196Z,3.75
2019-01-17T20:53:28.706Z,3.76
2019-01-17T20:56:16.773Z,3.81
2019-01-17T20:59:05.575Z,3.80
2019-01-17T21:02:06.036Z,3.74
2019-01-17T21:04:55.131Z,3.74
2019-01-17T21:07:54.008Z,3.76
2019-01-17T21:10:47.256Z,3.76
2019-01-17T21:13:36.449Z,3.80
2019-01-17T21:16:25.544Z,3.79
2019-01-17T21:19:14.701Z,3.71
2019-01-17T21:22:03.789Z,3.65
2019-01-17T21:24:52.050Z,3.65
2019-01-17T21:27:41.106Z,3.63
2019-01-17T21:30:29.648Z,3.59
2019-01-17T21:33:19.644Z,3.59
2019-01-17T21:36:07.950Z,3.59
2019-01-17T21:38:58.866Z,3.60
2019-01-17T21:41:48.880Z,3.60
2019-01-17T21:44:37.675Z,3.60
2019-01-17T21:47:26.441Z,3.59
2019-01-17T21:50:17.526Z,3.59
2019-01-17T21:53:06.177Z,3.64
2019-01-17T21:55:55.804Z,3.64
2019-01-17T21:58:45.593Z,3.61
2019-01-17T22:01:35.057Z,3.54
2019-01-17T22:04:24.382Z,3.50
2019-01-17T22:07:13.991Z,3.46
2019-01-17T22:10:02.769Z,3.45
2019-01-17T22:12:55.656Z,3.40
2019-01-17T22:15:45.360Z,3.32
2019-01-17T22:18:34.153Z,3.27
2019-01-17T22:21:22.698Z,3.26
2019-01-17T22:24:14.993Z,3.04
2019-01-17T22:27:04.122Z,2.80
2019-01-17T22:29:53.208Z,2.61
2019-01-17T22:32:42.517Z,2.38
2019-01-17T22:35:32.098Z,2.14
2019-01-17T22:38:20.976Z,2.14
2019-01-17T22:41:09.767Z,2.03
2019-01-17T22:43:58.420Z,2.03
2019-01-17T22:46:47.530Z,2.15
2019-01-17T22:49:36.274Z,2.16
2019-01-17T22:52:24.372Z,2.16
2019-01-17T22:55:13.819Z,2.19
2019-01-17T22:58:02.166Z,2.18
2019-01-17T23:01:06.611Z,2.18
2019-01-17T23:03:56.676Z,2.28
2019-01-17T23:06:44.970Z,2.17
2019-01-17T23:09:33.584Z,2.22
2019-01-17T23:12:22.842Z,2.24
2019-01-17T23:15:12.266Z,2.24
2019-01-17T23:18:01.621Z,2.34
2019-01-17T23:20:49.788Z,2.32
2019-01-17T23:23:39.041Z,2.39
2019-01-17T23:26:27.865Z,2.35
2019-01-17T23:29:16.672Z,2.41
2019-01-17T23:32:05.884Z,2.43
2019-01-17T23:34:55.192Z,2.47
2019-01-17T23:37:43.713Z,2.54
2019-01-17T23:40:33.194Z,2.40
2019-01-17T23:43:41.056Z,2.40
2019-01-17T23:46:33.072Z,2.49
2019-01-17T23:49:22.328Z,2.38
2019-01-17T23:52:10.947Z,2.41
2019-01-17T23:55:00.560Z,2.36
2019-01-17T23:57:49.220Z,2.33
